sensor_id;sensor_type;location;lat;lon;timestamp;pressure;altitude;pressure_sealevel;temperature;humidity
72359;BME280;60317;48.880;-0.862;2023-07-09T00:00:13;100646.09;;;21.77;64.72
72359;BME280;60317;48.880;-0.862;2023-07-09T00:02:40;100646.22;;;21.75;64.77
72359;BME280;60317;48.880;-0.862;2023-07-09T00:05:11;100657.81;;;21.76;64.74
72359;BME280;60317;48.880;-0.862;2023-07-09T00:07:38;100656.13;;;21.75;64.64
72359;BME280;60317;48.880;-0.862;2023-07-09T00:10:13;100658.97;;;21.73;64.69
72359;BME280;60317;48.880;-0.862;2023-07-09T00:12:40;100660.94;;;21.71;64.63
72359;BME280;60317;48.880;-0.862;2023-07-09T00:15:08;100656.38;;;21.72;64.66
72359;BME280;60317;48.880;-0.862;2023-07-09T00:17:34;100665.47;;;21.71;64.52
72359;BME280;60317;48.880;-0.862;2023-07-09T00:20:01;100663.75;;;21.70;64.54
72359;BME280;60317;48.880;-0.862;2023-07-09T00:22:29;100660.34;;;21.67;64.67
72359;BME280;60317;48.880;-0.862;2023-07-09T00:24:56;100654.25;;;21.65;64.90
72359;BME280;60317;48.880;-0.862;2023-07-09T00:27:25;100653.28;;;21.66;64.61
72359;BME280;60317;48.880;-0.862;2023-07-09T00:29:53;100652.44;;;21.66;64.79
72359;BME280;60317;48.880;-0.862;2023-07-09T00:32:20;100657.81;;;21.66;64.77
72359;BME280;60317;48.880;-0.862;2023-07-09T00:34:47;100658.66;;;21.66;64.71
72359;BME280;60317;48.880;-0.862;2023-07-09T00:37:14;100654.38;;;21.64;64.71
72359;BME280;60317;48.880;-0.862;2023-07-09T00:39:43;100657.94;;;21.64;64.76
72359;BME280;60317;48.880;-0.862;2023-07-09T00:42:13;100653.53;;;21.63;64.92
72359;BME280;60317;48.880;-0.862;2023-07-09T00:44:40;100649.00;;;21.64;64.80
72359;BME280;60317;48.880;-0.862;2023-07-09T00:47:17;100657.94;;;21.64;64.79
72359;BME280;60317;48.880;-0.862;2023-07-09T00:49:44;100660.78;;;21.63;64.80
72359;BME280;60317;48.880;-0.862;2023-07-09T00:52:22;100668.00;;;21.62;64.88
72359;BME280;60317;48.880;-0.862;2023-07-09T00:54:51;100656.50;;;21.60;64.80
72359;BME280;60317;48.880;-0.862;2023-07-09T00:57:21;100664.56;;;21.60;64.69
72359;BME280;60317;48.880;-0.862;2023-07-09T00:59:53;100651.97;;;21.61;64.73
72359;BME280;60317;48.880;-0.862;2023-07-09T01:02:22;100662.88;;;21.59;64.79
72359;BME280;60317;48.880;-0.862;2023-07-09T01:04:49;100653.09;;;21.58;65.03
72359;BME280;60317;48.880;-0.862;2023-07-09T01:07:16;100661.31;;;21.57;64.86
72359;BME280;60317;48.880;-0.862;2023-07-09T01:09:43;100662.31;;;21.56;64.92
72359;BME280;60317;48.880;-0.862;2023-07-09T01:12:11;100663.00;;;21.58;65.00
72359;BME280;60317;48.880;-0.862;2023-07-09T01:14:38;100661.31;;;21.57;65.32
72359;BME280;60317;48.880;-0.862;2023-07-09T01:17:06;100668.53;;;21.56;65.07
72359;BME280;60317;48.880;-0.862;2023-07-09T01:19:38;100673.91;;;21.56;65.15
72359;BME280;60317;48.880;-0.862;2023-07-09T01:22:06;100680.13;;;21.57;65.29
72359;BME280;60317;48.880;-0.862;2023-07-09T01:24:48;100679.28;;;21.56;65.38
72359;BME280;60317;48.880;-0.862;2023-07-09T01:27:16;100672.06;;;21.57;65.45
72359;BME280;60317;48.880;-0.862;2023-07-09T01:29:43;100681.13;;;21.56;65.60
72359;BME280;60317;48.880;-0.862;2023-07-09T01:32:13;100687.34;;;21.56;65.65
72359;BME280;60317;48.880;-0.862;2023-07-09T01:34:40;100701.78;;;21.55;65.73
72359;BME280;60317;48.880;-0.862;2023-07-09T01:37:08;100721.47;;;21.56;65.83
72359;BME280;60317;48.880;-0.862;2023-07-09T01:39:35;100705.34;;;21.56;65.67
72359;BME280;60317;48.880;-0.862;2023-07-09T01:42:01;100693.72;;;21.55;65.68
72359;BME280;60317;48.880;-0.862;2023-07-09T01:44:28;100712.56;;;21.55;65.95
72359;BME280;60317;48.880;-0.862;2023-07-09T01:46:54;100698.22;;;21.55;66.24
72359;BME280;60317;48.880;-0.862;2023-07-09T01:49:21;100673.19;;;21.54;66.14
72359;BME280;60317;48.880;-0.862;2023-07-09T01:51:47;100684.78;;;21.55;66.36
72359;BME280;60317;48.880;-0.862;2023-07-09T01:54:15;100676.72;;;21.55;66.51
72359;BME280;60317;48.880;-0.862;2023-07-09T01:56:42;100689.19;;;21.56;66.33
72359;BME280;60317;48.880;-0.862;2023-07-09T01:59:08;100681.13;;;21.56;66.44
72359;BME280;60317;48.880;-0.862;2023-07-09T02:01:35;100670.47;;;21.54;66.67
72359;BME280;60317;48.880;-0.862;2023-07-09T02:04:01;100657.03;;;21.54;66.61
72359;BME280;60317;48.880;-0.862;2023-07-09T02:06:29;100633.69;;;21.55;66.61
72359;BME280;60317;48.880;-0.862;2023-07-09T02:08:55;100609.78;;;21.52;66.56
72359;BME280;60317;48.880;-0.862;2023-07-09T02:11:23;100607.09;;;21.52;66.75
72359;BME280;60317;48.880;-0.862;2023-07-09T02:13:49;100618.41;;;21.55;66.59
72359;BME280;60317;48.880;-0.862;2023-07-09T02:16:16;100632.00;;;21.54;66.70
72359;BME280;60317;48.880;-0.862;2023-07-09T02:18:43;100646.28;;;21.54;66.89
72359;BME280;60317;48.880;-0.862;2023-07-09T02:21:09;100665.25;;;21.53;66.88
72359;BME280;60317;48.880;-0.862;2023-07-09T02:23:35;100674.31;;;21.52;67.18
72359;BME280;60317;48.880;-0.862;2023-07-09T02:26:02;100685.06;;;21.52;67.26
72359;BME280;60317;48.880;-0.862;2023-07-09T02:28:30;100676.13;;;21.51;67.25
72359;BME280;60317;48.880;-0.862;2023-07-09T02:30:57;100678.13;;;21.49;67.47
72359;BME280;60317;48.880;-0.862;2023-07-09T02:33:23;100676.28;;;21.50;67.30
72359;BME280;60317;48.880;-0.862;2023-07-09T02:35:50;100679.97;;;21.49;67.66
72359;BME280;60317;48.880;-0.862;2023-07-09T02:38:17;100693.41;;;21.49;67.44
72359;BME280;60317;48.880;-0.862;2023-07-09T02:40:43;100689.72;;;21.50;67.42
72359;BME280;60317;48.880;-0.862;2023-07-09T02:43:10;100689.88;;;21.48;67.55
72359;BME280;60317;48.880;-0.862;2023-07-09T02:45:37;100678.25;;;21.48;67.88
72359;BME280;60317;48.880;-0.862;2023-07-09T02:48:04;100680.09;;;21.47;67.78
72359;BME280;60317;48.880;-0.862;2023-07-09T02:50:31;100690.00;;;21.47;67.75
72359;BME280;60317;48.880;-0.862;2023-07-09T02:52:57;100675.69;;;21.46;67.74
72359;BME280;60317;48.880;-0.862;2023-07-09T02:55:24;100676.69;;;21.45;67.78
72359;BME280;60317;48.880;-0.862;2023-07-09T02:57:50;100675.81;;;21.44;67.87
72359;BME280;60317;48.880;-0.862;2023-07-09T03:00:17;100673.13;;;21.44;68.01
72359;BME280;60317;48.880;-0.862;2023-07-09T03:02:45;100665.06;;;21.44;67.83
72359;BME280;60317;48.880;-0.862;2023-07-09T03:05:12;100664.22;;;21.44;68.00
72359;BME280;60317;48.880;-0.862;2023-07-09T03:07:38;100667.75;;;21.44;67.90
72359;BME280;60317;48.880;-0.862;2023-07-09T03:10:06;100671.44;;;21.43;68.02
72359;BME280;60317;48.880;-0.862;2023-07-09T03:12:33;100685.72;;;21.44;68.02
72359;BME280;60317;48.880;-0.862;2023-07-09T03:14:59;100693.78;;;21.44;67.92
72359;BME280;60317;48.880;-0.862;2023-07-09T03:17:26;100694.63;;;21.44;68.15
72359;BME280;60317;48.880;-0.862;2023-07-09T03:19:54;100698.31;;;21.43;68.03
72359;BME280;60317;48.880;-0.862;2023-07-09T03:22:20;100700.16;;;21.43;68.11
72359;BME280;60317;48.880;-0.862;2023-07-09T03:24:47;100690.25;;;21.43;68.21
72359;BME280;60317;48.880;-0.862;2023-07-09T03:27:13;100679.50;;;21.43;68.27
72359;BME280;60317;48.880;-0.862;2023-07-09T03:29:40;100680.50;;;21.42;68.11
72359;BME280;60317;48.880;-0.862;2023-07-09T03:32:07;100678.66;;;21.43;68.20
72359;BME280;60317;48.880;-0.862;2023-07-09T03:34:33;100680.50;;;21.42;68.17
72359;BME280;60317;48.880;-0.862;2023-07-09T03:37:01;100684.03;;;21.43;68.20
72359;BME280;60317;48.880;-0.862;2023-07-09T03:39:28;100676.97;;;21.42;68.16
72359;BME280;60317;48.880;-0.862;2023-07-09T03:41:55;100667.16;;;21.41;68.23
72359;BME280;60317;48.880;-0.862;2023-07-09T03:44:21;100668.03;;;21.41;68.11
72359;BME280;60317;48.880;-0.862;2023-07-09T03:46:48;100676.22;;;21.40;68.38
72359;BME280;60317;48.880;-0.862;2023-07-09T03:49:14;100676.13;;;21.41;68.19
72359;BME280;60317;48.880;-0.862;2023-07-09T03:51:41;100684.19;;;21.41;68.24
72359;BME280;60317;48.880;-0.862;2023-07-09T03:54:09;100679.75;;;21.40;68.35
72359;BME280;60317;48.880;-0.862;2023-07-09T03:56:35;100675.38;;;21.39;68.44
72359;BME280;60317;48.880;-0.862;2023-07-09T03:59:02;100680.75;;;21.39;68.35
72359;BME280;60317;48.880;-0.862;2023-07-09T04:01:28;100697.75;;;21.40;68.33
72359;BME280;60317;48.880;-0.862;2023-07-09T04:03:55;100698.59;;;21.40;68.28
72359;BME280;60317;48.880;-0.862;2023-07-09T04:06:21;100690.53;;;21.40;68.38
72359;BME280;60317;48.880;-0.862;2023-07-09T04:08:48;100711.19;;;21.40;68.27
72359;BME280;60317;48.880;-0.862;2023-07-09T04:11:16;100715.72;;;21.39;68.45
72359;BME280;60317;48.880;-0.862;2023-07-09T04:13:42;100700.56;;;21.38;68.57
72359;BME280;60317;48.880;-0.862;2023-07-09T04:16:10;100698.72;;;21.39;68.63
72359;BME280;60317;48.880;-0.862;2023-07-09T04:18:37;100686.28;;;21.38;68.53
72359;BME280;60317;48.880;-0.862;2023-07-09T04:21:03;100683.59;;;21.38;68.42
72359;BME280;60317;48.880;-0.862;2023-07-09T04:23:30;100679.06;;;21.38;68.58
72359;BME280;60317;48.880;-0.862;2023-07-09T04:25:56;100671.00;;;21.38;68.76
72359;BME280;60317;48.880;-0.862;2023-07-09T04:28:24;100679.19;;;21.37;68.35
72359;BME280;60317;48.880;-0.862;2023-07-09T04:30:51;100683.72;;;21.36;68.72
72359;BME280;60317;48.880;-0.862;2023-07-09T04:33:19;100671.00;;;21.38;68.20
72359;BME280;60317;48.880;-0.862;2023-07-09T04:35:46;100682.59;;;21.39;68.53
72359;BME280;60317;48.880;-0.862;2023-07-09T04:38:14;100671.00;;;21.38;68.36
72359;BME280;60317;48.880;-0.862;2023-07-09T04:40:41;100671.00;;;21.38;68.41
72359;BME280;60317;48.880;-0.862;2023-07-09T04:43:07;100675.38;;;21.39;68.52
72359;BME280;60317;48.880;-0.862;2023-07-09T04:45:35;100674.53;;;21.39;68.38
72359;BME280;60317;48.880;-0.862;2023-07-09T04:48:02;100675.53;;;21.38;68.55
72359;BME280;60317;48.880;-0.862;2023-07-09T04:50:29;100682.59;;;21.39;68.60
72359;BME280;60317;48.880;-0.862;2023-07-09T04:52:55;100674.53;;;21.39;68.40
72359;BME280;60317;48.880;-0.862;2023-07-09T04:55:22;100680.75;;;21.39;68.47
72359;BME280;60317;48.880;-0.862;2023-07-09T04:57:48;100683.44;;;21.39;68.45
72359;BME280;60317;48.880;-0.862;2023-07-09T05:00:15;100675.38;;;21.39;68.58
72359;BME280;60317;48.880;-0.862;2023-07-09T05:02:43;100665.63;;;21.38;68.48
72359;BME280;60317;48.880;-0.862;2023-07-09T05:05:10;100661.22;;;21.37;68.58
72359;BME280;60317;48.880;-0.862;2023-07-09T05:07:37;100669.16;;;21.39;68.73
72359;BME280;60317;48.880;-0.862;2023-07-09T05:10:04;100675.53;;;21.38;68.60
72359;BME280;60317;48.880;-0.862;2023-07-09T05:12:31;100685.41;;;21.37;68.48
72359;BME280;60317;48.880;-0.862;2023-07-09T05:14:57;100677.34;;;21.37;68.65
72359;BME280;60317;48.880;-0.862;2023-07-09T05:17:24;100688.09;;;21.37;68.68
72359;BME280;60317;48.880;-0.862;2023-07-09T05:19:52;100680.03;;;21.37;68.60
72359;BME280;60317;48.880;-0.862;2023-07-09T05:22:18;100668.31;;;21.38;68.56
72359;BME280;60317;48.880;-0.862;2023-07-09T05:24:45;100673.53;;;21.40;68.51
72359;BME280;60317;48.880;-0.862;2023-07-09T05:27:11;100682.59;;;21.39;68.67
72359;BME280;60317;48.880;-0.862;2023-07-09T05:29:38;100675.53;;;21.38;68.82
72359;BME280;60317;48.880;-0.862;2023-07-09T05:32:05;100678.34;;;21.36;68.69
72359;BME280;60317;48.880;-0.862;2023-07-09T05:34:31;100680.03;;;21.37;68.76
72359;BME280;60317;48.880;-0.862;2023-07-09T05:36:59;100688.09;;;21.37;68.63
72359;BME280;60317;48.880;-0.862;2023-07-09T05:39:27;100710.47;;;21.38;68.83
72359;BME280;60317;48.880;-0.862;2023-07-09T05:41:53;100746.28;;;21.38;68.80
72359;BME280;60317;48.880;-0.862;2023-07-09T05:44:20;100789.31;;;21.38;68.77
72359;BME280;60317;48.880;-0.862;2023-07-09T05:46:46;100817.03;;;21.39;68.75
72359;BME280;60317;48.880;-0.862;2023-07-09T05:49:13;100815.34;;;21.38;68.61
72359;BME280;60317;48.880;-0.862;2023-07-09T05:51:40;100814.63;;;21.36;68.56
72359;BME280;60317;48.880;-0.862;2023-07-09T05:54:08;100829.75;;;21.37;68.61
72359;BME280;60317;48.880;-0.862;2023-07-09T05:56:34;100820.84;;;21.36;68.25
72359;BME280;60317;48.880;-0.862;2023-07-09T05:59:01;100829.75;;;21.37;68.37
72359;BME280;60317;48.880;-0.862;2023-07-09T06:01:27;100810.94;;;21.37;68.29
72359;BME280;60317;48.880;-0.862;2023-07-09T06:03:54;100783.09;;;21.38;68.25
72359;BME280;60317;48.880;-0.862;2023-07-09T06:06:21;100797.50;;;21.37;68.62
72359;BME280;60317;48.880;-0.862;2023-07-09T06:08:47;100807.97;;;21.40;68.61
72359;BME280;60317;48.880;-0.862;2023-07-09T06:11:15;100814.22;;;21.40;68.71
72359;BME280;60317;48.880;-0.862;2023-07-09T06:13:42;100823.84;;;21.43;68.79
72359;BME280;60317;48.880;-0.862;2023-07-09T06:16:08;100822.03;;;21.43;68.69
72359;BME280;60317;48.880;-0.862;2023-07-09T06:18:35;100825.56;;;21.44;68.79
72359;BME280;60317;48.880;-0.862;2023-07-09T06:21:03;100820.19;;;21.44;68.78
72359;BME280;60317;48.880;-0.862;2023-07-09T06:23:30;100817.13;;;21.49;68.72
72359;BME280;60317;48.880;-0.862;2023-07-09T06:25:56;100819.53;;;21.52;68.65
72359;BME280;60317;48.880;-0.862;2023-07-09T06:28:26;100825.03;;;21.50;68.65
72359;BME280;60317;48.880;-0.862;2023-07-09T06:30:53;100826.03;;;21.49;68.50
72359;BME280;60317;48.880;-0.862;2023-07-09T06:33:20;100834.81;;;21.51;68.23
72359;BME280;60317;48.880;-0.862;2023-07-09T06:35:47;100841.91;;;21.52;68.28
72359;BME280;60317;48.880;-0.862;2023-07-09T06:38:14;100840.78;;;21.55;68.18
72359;BME280;60317;48.880;-0.862;2023-07-09T06:40:40;100850.69;;;21.54;67.94
72359;BME280;60317;48.880;-0.862;2023-07-09T06:43:07;100852.66;;;21.52;68.11
72359;BME280;60317;48.880;-0.862;2023-07-09T06:45:35;100852.78;;;21.51;68.17
72359;BME280;60317;48.880;-0.862;2023-07-09T06:48:01;100867.22;;;21.50;68.12
72359;BME280;60317;48.880;-0.862;2023-07-09T06:50:28;100864.53;;;21.50;68.45
72359;BME280;60317;48.880;-0.862;2023-07-09T06:52:55;100866.97;;;21.53;68.30
72359;BME280;60317;48.880;-0.862;2023-07-09T06:55:22;100863.28;;;21.54;68.40
72359;BME280;60317;48.880;-0.862;2023-07-09T06:57:48;100838.06;;;21.55;68.04
72359;BME280;60317;48.880;-0.862;2023-07-09T07:00:15;100836.38;;;21.54;67.99
72359;BME280;60317;48.880;-0.862;2023-07-09T07:02:43;100821.94;;;21.55;67.84
72359;BME280;60317;48.880;-0.862;2023-07-09T07:05:10;100814.34;;;21.60;67.56
72359;BME280;60317;48.880;-0.862;2023-07-09T07:07:36;100806.47;;;21.68;67.12
72359;BME280;60317;48.880;-0.862;2023-07-09T07:10:03;100799.97;;;21.71;67.00
72359;BME280;60317;48.880;-0.862;2023-07-09T07:12:41;100813.00;;;21.75;66.88
72359;BME280;60317;48.880;-0.862;2023-07-09T07:15:08;100812.03;;;21.76;66.81
72359;BME280;60317;48.880;-0.862;2023-07-09T07:17:35;100802.25;;;21.75;66.64
72359;BME280;60317;48.880;-0.862;2023-07-09T07:20:03;100801.97;;;21.78;66.59
72359;BME280;60317;48.880;-0.862;2023-07-09T07:22:29;100794.91;;;21.77;66.38
72359;BME280;60317;48.880;-0.862;2023-07-09T07:24:56;100798.44;;;21.78;66.28
72359;BME280;60317;48.880;-0.862;2023-07-09T07:27:23;100796.16;;;21.73;66.40
72359;BME280;60317;48.880;-0.862;2023-07-09T07:29:49;100805.47;;;21.69;66.50
72359;BME280;60317;48.880;-0.862;2023-07-09T07:32:16;100815.25;;;21.70;66.45
72359;BME280;60317;48.880;-0.862;2023-07-09T07:34:42;100815.25;;;21.70;66.37
72359;BME280;60317;48.880;-0.862;2023-07-09T07:37:10;100812.41;;;21.72;66.42
72359;BME280;60317;48.880;-0.862;2023-07-09T07:39:37;100809.47;;;21.75;66.31
72359;BME280;60317;48.880;-0.862;2023-07-09T07:42:04;100802.97;;;21.77;66.18
72359;BME280;60317;48.880;-0.862;2023-07-09T07:44:33;100814.16;;;21.82;66.33
72359;BME280;60317;48.880;-0.862;2023-07-09T07:46:59;100817.72;;;21.83;65.77
72359;BME280;60317;48.880;-0.862;2023-07-09T07:49:26;100810.78;;;21.80;66.30
72359;BME280;60317;48.880;-0.862;2023-07-09T07:51:53;100816.16;;;21.80;66.09
72359;BME280;60317;48.880;-0.862;2023-07-09T07:54:21;100826.19;;;21.78;66.00
72359;BME280;60317;48.880;-0.862;2023-07-09T07:56:48;100813.31;;;21.82;65.74
72359;BME280;60317;48.880;-0.862;2023-07-09T07:59:16;100821.53;;;21.80;65.75
72359;BME280;60317;48.880;-0.862;2023-07-09T08:01:43;100818.97;;;21.79;66.04
72359;BME280;60317;48.880;-0.862;2023-07-09T08:04:09;100801.72;;;21.81;65.92
72359;BME280;60317;48.880;-0.862;2023-07-09T08:06:36;100781.63;;;21.85;65.54
72359;BME280;60317;48.880;-0.862;2023-07-09T08:09:02;100792.13;;;21.88;65.47
72359;BME280;60317;48.880;-0.862;2023-07-09T08:11:30;100787.59;;;21.89;65.30
72359;BME280;60317;48.880;-0.862;2023-07-09T08:13:57;100787.59;;;21.89;65.17
72359;BME280;60317;48.880;-0.862;2023-07-09T08:16:23;100799.47;;;21.86;64.92
72359;BME280;60317;48.880;-0.862;2023-07-09T08:18:50;100797.75;;;21.85;65.15
72359;BME280;60317;48.880;-0.862;2023-07-09T08:21:16;100803.28;;;21.84;65.39
72359;BME280;60317;48.880;-0.862;2023-07-09T08:23:44;100805.50;;;21.79;65.76
72359;BME280;60317;48.880;-0.862;2023-07-09T08:26:11;100813.75;;;21.77;65.77
72359;BME280;60317;48.880;-0.862;2023-07-09T08:28:39;100813.47;;;21.80;65.48
72359;BME280;60317;48.880;-0.862;2023-07-09T08:31:05;100816.88;;;21.82;65.61
72359;BME280;60317;48.880;-0.862;2023-07-09T08:33:32;100810.22;;;21.86;65.27
72359;BME280;60317;48.880;-0.862;2023-07-09T08:35:59;100806.31;;;21.90;65.38
72359;BME280;60317;48.880;-0.862;2023-07-09T08:38:25;100808.00;;;21.91;65.03
72359;BME280;60317;48.880;-0.862;2023-07-09T08:40:57;100799.78;;;21.93;64.90
72359;BME280;60317;48.880;-0.862;2023-07-09T08:43:32;100801.63;;;21.92;65.03
72359;BME280;60317;48.880;-0.862;2023-07-09T08:46:07;100796.38;;;21.91;64.64
72359;BME280;60317;48.880;-0.862;2023-07-09T08:48:38;100802.16;;;21.86;64.75
72359;BME280;60317;48.880;-0.862;2023-07-09T08:51:13;100801.56;;;21.83;64.91
72359;BME280;60317;48.880;-0.862;2023-07-09T08:53:43;100811.38;;;21.84;64.62
72359;BME280;60317;48.880;-0.862;2023-07-09T08:56:12;100815.75;;;21.85;64.71
72359;BME280;60317;48.880;-0.862;2023-07-09T08:58:40;100796.91;;;21.85;64.56
72359;BME280;60317;48.880;-0.862;2023-07-09T09:01:18;100787.00;;;21.85;64.03
72359;BME280;60317;48.880;-0.862;2023-07-09T09:03:48;100779.97;;;21.94;64.36
72359;BME280;60317;48.880;-0.862;2023-07-09T09:06:18;100778.56;;;22.00;63.77
72359;BME280;60317;48.880;-0.862;2023-07-09T09:08:55;100775.34;;;22.06;63.98
72359;BME280;60317;48.880;-0.862;2023-07-09T09:11:29;100785.69;;;22.10;63.68
72359;BME280;60317;48.880;-0.862;2023-07-09T09:14:01;100788.38;;;22.10;63.67
72359;BME280;60317;48.880;-0.862;2023-07-09T09:16:33;100784.72;;;22.11;63.74
72359;BME280;60317;48.880;-0.862;2023-07-09T09:19:01;100791.63;;;22.14;63.71
72359;BME280;60317;48.880;-0.862;2023-07-09T09:21:32;100798.78;;;22.15;63.56
72359;BME280;60317;48.880;-0.862;2023-07-09T09:24:12;100795.59;;;22.10;63.88
72359;BME280;60317;48.880;-0.862;2023-07-09T09:26:42;100800.41;;;22.06;63.90
72359;BME280;60317;48.880;-0.862;2023-07-09T09:29:11;100788.78;;;22.06;63.73
72359;BME280;60317;48.880;-0.862;2023-07-09T09:31:40;100791.22;;;22.09;63.48
72359;BME280;60317;48.880;-0.862;2023-07-09T09:34:17;100802.16;;;22.17;63.68
72359;BME280;60317;48.880;-0.862;2023-07-09T09:36:44;100798.09;;;22.23;63.03
72359;BME280;60317;48.880;-0.862;2023-07-09T09:39:10;100801.22;;;22.28;62.67
72359;BME280;60317;48.880;-0.862;2023-07-09T09:41:37;100808.28;;;22.29;62.76
72359;BME280;60317;48.880;-0.862;2023-07-09T09:44:04;100820.22;;;22.26;63.22
72359;BME280;60317;48.880;-0.862;2023-07-09T09:46:32;100823.72;;;22.17;63.69
72359;BME280;60317;48.880;-0.862;2023-07-09T09:49:01;100838.16;;;22.16;63.25
72359;BME280;60317;48.880;-0.862;2023-07-09T09:51:29;100834.88;;;22.12;63.58
72359;BME280;60317;48.880;-0.862;2023-07-09T09:53:58;100838.88;;;22.18;63.38
72359;BME280;60317;48.880;-0.862;2023-07-09T09:56:28;100843.03;;;22.22;63.32
72359;BME280;60317;48.880;-0.862;2023-07-09T09:58:55;100826.56;;;22.25;63.15
72359;BME280;60317;48.880;-0.862;2023-07-09T10:01:27;100837.63;;;22.22;63.38
72359;BME280;60317;48.880;-0.862;2023-07-09T10:03:56;100841.28;;;22.21;63.32
72359;BME280;60317;48.880;-0.862;2023-07-09T10:06:32;100846.69;;;22.21;63.45
72359;BME280;60317;48.880;-0.862;2023-07-09T10:09:07;100854.31;;;22.16;63.57
72359;BME280;60317;48.880;-0.862;2023-07-09T10:11:45;100859.34;;;22.09;63.36
72359;BME280;60317;48.880;-0.862;2023-07-09T10:14:29;100864.16;;;22.06;62.98
72359;BME280;60317;48.880;-0.862;2023-07-09T10:17:00;100875.19;;;22.03;63.75
72359;BME280;60317;48.880;-0.862;2023-07-09T10:19:35;100881.41;;;22.03;62.72
72359;BME280;60317;48.880;-0.862;2023-07-09T10:22:13;100894.75;;;22.05;63.60
72359;BME280;60317;48.880;-0.862;2023-07-09T10:24:51;100892.78;;;22.07;63.52
72359;BME280;60317;48.880;-0.862;2023-07-09T10:27:28;100887.66;;;22.04;63.63
72359;BME280;60317;48.880;-0.862;2023-07-09T10:30:03;100908.91;;;22.07;63.55
72359;BME280;60317;48.880;-0.862;2023-07-09T10:33:00;100899.59;;;22.11;63.37
72359;BME280;60317;48.880;-0.862;2023-07-09T10:35:39;100900.09;;;22.16;63.15
72359;BME280;60317;48.880;-0.862;2023-07-09T10:38:17;100901.94;;;22.15;63.24
72359;BME280;60317;48.880;-0.862;2023-07-09T10:40:49;100905.31;;;22.18;63.25
72359;BME280;60317;48.880;-0.862;2023-07-09T10:43:21;100898.09;;;22.18;63.34
72359;BME280;60317;48.880;-0.862;2023-07-09T10:45:52;100893.00;;;22.15;62.88
72359;BME280;60317;48.880;-0.862;2023-07-09T10:48:31;100898.25;;;22.17;63.01
72359;BME280;60317;48.880;-0.862;2023-07-09T10:51:00;100893.59;;;22.19;63.56
72359;BME280;60317;48.880;-0.862;2023-07-09T10:53:33;100894.56;;;22.18;63.12
72359;BME280;60317;48.880;-0.862;2023-07-09T10:56:08;100886.47;;;22.18;63.19
72359;BME280;60317;48.880;-0.862;2023-07-09T10:58:41;100880.81;;;22.21;63.41
72359;BME280;60317;48.880;-0.862;2023-07-09T11:01:12;100886.38;;;22.19;63.24
72359;BME280;60317;48.880;-0.862;2023-07-09T11:03:43;100888.06;;;22.20;62.98
72359;BME280;60317;48.880;-0.862;2023-07-09T11:06:18;100880.97;;;22.19;63.07
72359;BME280;60317;48.880;-0.862;2023-07-09T11:08:48;100894.94;;;22.13;63.15
72359;BME280;60317;48.880;-0.862;2023-07-09T11:11:25;100895.94;;;22.12;63.14
72359;BME280;60317;48.880;-0.862;2023-07-09T11:13:58;100895.34;;;22.08;63.30
72359;BME280;60317;48.880;-0.862;2023-07-09T11:16:30;100893.63;;;22.07;63.43
72359;BME280;60317;48.880;-0.862;2023-07-09T11:19:00;100890.81;;;22.09;63.48
72359;BME280;60317;48.880;-0.862;2023-07-09T11:21:27;100895.09;;;22.11;63.13
72359;BME280;60317;48.880;-0.862;2023-07-09T11:23:57;100890.53;;;22.12;63.23
72359;BME280;60317;48.880;-0.862;2023-07-09T11:26:27;100890.31;;;22.15;62.90
72359;BME280;60317;48.880;-0.862;2023-07-09T11:28:55;100888.56;;;22.14;63.11
72359;BME280;60317;48.880;-0.862;2023-07-09T11:31:24;100887.13;;;22.10;62.85
72359;BME280;60317;48.880;-0.862;2023-07-09T11:34:02;100891.66;;;22.09;63.00
72359;BME280;60317;48.880;-0.862;2023-07-09T11:36:34;100886.84;;;22.13;62.96
72359;BME280;60317;48.880;-0.862;2023-07-09T11:39:19;100889.97;;;22.08;63.15
72359;BME280;60317;48.880;-0.862;2023-07-09T11:41:46;100881.88;;;22.08;63.08
72359;BME280;60317;48.880;-0.862;2023-07-09T11:44:16;100891.41;;;22.12;62.89
72359;BME280;60317;48.880;-0.862;2023-07-09T11:46:52;100882.47;;;22.12;62.90
72359;BME280;60317;48.880;-0.862;2023-07-09T11:49:23;100888.81;;;22.11;63.34
72359;BME280;60317;48.880;-0.862;2023-07-09T11:51:54;100880.88;;;22.09;63.42
72359;BME280;60317;48.880;-0.862;2023-07-09T11:54:22;100873.66;;;22.10;63.43
72359;BME280;60317;48.880;-0.862;2023-07-09T11:56:58;100882.16;;;22.05;63.42
72359;BME280;60317;48.880;-0.862;2023-07-09T11:59:25;100877.34;;;22.09;63.81
72359;BME280;60317;48.880;-0.862;2023-07-09T12:01:52;100877.34;;;22.09;63.67
72359;BME280;60317;48.880;-0.862;2023-07-09T12:04:21;100871.22;;;22.07;63.76
72359;BME280;60317;48.880;-0.862;2023-07-09T12:06:53;100878.34;;;22.08;63.76
72359;BME280;60317;48.880;-0.862;2023-07-09T12:09:24;100873.00;;;22.18;63.45
72359;BME280;60317;48.880;-0.862;2023-07-09T12:11:56;100870.31;;;22.18;63.77
72359;BME280;60317;48.880;-0.862;2023-07-09T12:14:23;100880.25;;;22.17;63.88
72359;BME280;60317;48.880;-0.862;2023-07-09T12:16:51;100870.06;;;22.21;63.58
72359;BME280;60317;48.880;-0.862;2023-07-09T12:19:21;100864.66;;;22.21;63.68
72359;BME280;60317;48.880;-0.862;2023-07-09T12:21:50;100872.06;;;22.19;63.76
72359;BME280;60317;48.880;-0.862;2023-07-09T12:24:20;100866.66;;;22.19;63.48
72359;BME280;60317;48.880;-0.862;2023-07-09T12:26:50;100855.22;;;22.26;63.66
72359;BME280;60317;48.880;-0.862;2023-07-09T12:29:17;100856.81;;;22.38;63.19
72359;BME280;60317;48.880;-0.862;2023-07-09T12:31:44;100862.50;;;22.45;62.99
72359;BME280;60317;48.880;-0.862;2023-07-09T12:34:13;100869.47;;;22.48;63.16
72359;BME280;60317;48.880;-0.862;2023-07-09T12:36:45;100853.03;;;22.51;63.05
72359;BME280;60317;48.880;-0.862;2023-07-09T12:39:15;100855.16;;;22.47;63.09
72359;BME280;60317;48.880;-0.862;2023-07-09T12:41:44;100858.97;;;22.45;63.14
72359;BME280;60317;48.880;-0.862;2023-07-09T12:44:16;100871.72;;;22.52;63.33
72359;BME280;60317;48.880;-0.862;2023-07-09T12:46:45;100872.47;;;22.54;63.03